Time;durP1;ratioP1;P1;durP2;ratioP2;P2;SDS_P1;SDS_P2;PMS_P1;PMS_P2;Temp;Humidity;BMP_temperature;BMP_pressure;BME280_temperature;BME280_humidity;BME280_pressure;Samples;Min_cycle;Max_cycle;Signal;HPM_P1;HPM_P2
2023/07/02 00:01:21;;;;;;;14.63;10.00;;;;;;;-141.97;87.91;47394.16;4996553;28;20175;-86
2023/07/02 00:03:46;;;;;;;15.00;9.90;;;;;;;-141.97;88.66;47486.41;5014324;28;20636;-85
2023/07/02 00:06:11;;;;;;;14.50;9.90;;;;;;;-141.97;88.31;47394.16;5012940;28;20214;-86
2023/07/02 00:08:37;;;;;;;15.00;9.57;;;;;;;-141.97;88.63;47455.66;5014013;28;20171;-87
2023/07/02 00:11:02;;;;;;;14.43;9.60;;;;;;;-141.97;89.67;47496.00;5013923;28;20177;-86
2023/07/02 00:13:28;;;;;;;13.60;9.70;;;;;;;-141.97;91.66;47326.88;5014186;28;20202;-86
2023/07/02 00:15:53;;;;;;;15.37;9.60;;;;;;;-141.97;91.25;47492.16;5014032;28;20262;-86
2023/07/02 00:18:18;;;;;;;17.47;10.57;;;;;;;-141.97;91.02;47363.41;5013859;28;20198;-86
2023/07/02 00:20:44;;;;;;;14.63;10.03;;;;;;;-141.97;91.14;47371.09;4996983;28;20234;-87
2023/07/02 00:23:09;;;;;;;14.40;10.40;;;;;;;-141.97;91.47;47496.00;4996799;28;20158;-87
2023/07/02 00:25:35;;;;;;;20.00;12.53;;;;;;;-141.97;90.97;47409.53;5013077;28;20202;-86
2023/07/02 00:28:01;;;;;;;20.00;13.47;;;;;;;-141.97;90.67;47323.03;5013596;28;20611;-86
2023/07/02 00:30:26;;;;;;;26.27;16.67;;;;;;;-141.97;90.50;47630.56;5013428;28;20274;-85
2023/07/02 00:32:52;;;;;;;35.43;22.50;;;;;;;-141.97;89.65;47367.25;5014499;28;20171;-86
2023/07/02 00:35:17;;;;;;;38.60;22.70;;;;;;;-141.97;89.70;47463.34;5015501;28;20627;-85
2023/07/02 00:37:42;;;;;;;35.97;22.07;;;;;;;-141.97;89.02;47503.69;4996005;28;20202;-86
2023/07/02 00:40:08;;;;;;;36.30;20.60;;;;;;;-141.97;89.15;47519.06;4995936;28;20182;-86
2023/07/02 00:42:34;;;;;;;29.00;19.17;;;;;;;-141.97;88.53;47699.75;5012773;28;20175;-85
2023/07/02 00:45:02;;;;;;;28.53;17.60;;;;;;;-141.97;88.25;47642.09;5013624;28;20170;-85
2023/07/02 00:47:33;;;;;;;24.50;16.60;;;;;;;-141.97;87.82;47517.16;5014034;28;20174;-85
2023/07/02 00:49:58;;;;;;;24.53;16.30;;;;;;;-141.97;87.25;47488.31;5014980;28;20330;-86
2023/07/02 00:52:25;;;;;;;24.57;16.20;;;;;;;-141.97;87.09;47480.63;5013635;28;20179;-86
2023/07/02 00:54:51;;;;;;;25.13;16.37;;;;;;;-141.97;87.17;47236.56;5014562;28;20167;-85
2023/07/02 00:57:16;;;;;;;23.47;16.10;;;;;;;-141.97;87.16;47369.16;4999604;28;20187;-86
2023/07/02 00:59:42;;;;;;;24.83;15.97;;;;;;;-141.97;86.78;47440.28;5016948;28;20174;-85
2023/07/02 01:02:07;;;;;;;25.17;16.47;;;;;;;-141.97;86.54;47426.81;5014598;28;20194;-85
2023/07/02 01:04:33;;;;;;;25.80;16.70;;;;;;;-141.97;86.58;47419.13;5013717;28;20178;-87
2023/07/02 01:06:58;;;;;;;33.40;21.03;;;;;;;-141.97;85.67;47584.44;5013169;28;20166;-86
2023/07/02 01:09:27;;;;;;;37.37;22.33;;;;;;;-141.97;85.99;47519.06;5013281;28;20179;-85
2023/07/02 01:11:59;;;;;;;40.10;23.37;;;;;;;-141.97;85.69;47467.19;4996253;28;20175;-86
2023/07/02 01:14:47;;;;;;;35.13;22.40;;;;;;;-141.97;86.20;47496.00;4996364;28;20261;-85
2023/07/02 01:17:13;;;;;;;38.33;24.10;;;;;;;-141.97;86.15;47415.28;5013562;28;20179;-85
2023/07/02 01:19:58;;;;;;;40.03;24.30;;;;;;;-141.97;86.24;47494.09;5013476;28;20198;-86
2023/07/02 01:22:28;;;;;;;43.60;24.77;;;;;;;-141.97;86.84;47530.59;5013562;28;20226;-85
2023/07/02 01:24:54;;;;;;;49.73;28.33;;;;;;;-141.97;87.31;47492.16;5013141;28;20174;-85
2023/07/02 01:27:21;;;;;;;50.70;29.77;;;;;;;-141.97;86.94;47486.41;5013447;28;20171;-86
2023/07/02 01:29:50;;;;;;;58.57;35.97;;;;;;;-141.97;86.46;47449.88;5013457;28;20205;-86
2023/07/02 01:32:15;;;;;;;63.50;36.43;;;;;;;-141.97;86.65;47388.38;5012814;28;20236;-84
2023/07/02 01:34:43;;;;;;;70.47;37.83;;;;;;;-141.97;86.69;47371.09;5012944;28;20154;-86
2023/07/02 01:37:09;;;;;;;69.90;37.23;;;;;;;-141.97;87.60;47336.50;5012966;28;20163;-87
2023/07/02 01:39:35;;;;;;;61.40;35.33;;;;;;;-141.97;87.10;47284.59;5013477;28;20178;-88
2023/07/02 01:42:27;;;;;;;60.40;35.30;;;;;;;-141.97;86.95;47301.91;5013222;28;20166;-85
2023/07/02 01:44:52;;;;;;;56.57;33.27;;;;;;;-141.97;86.83;47263.47;4952968;29;20193;-86
2023/07/02 01:47:19;;;;;;;40.90;24.10;;;;;;;-141.97;85.38;47717.06;4953047;29;20197;-86
2023/07/02 01:49:45;;;;;;;27.30;17.90;;;;;;;-141.97;84.53;47582.50;4953046;28;20195;-87
2023/07/02 01:52:10;;;;;;;29.33;17.30;;;;;;;-141.97;84.44;47632.47;4955150;29;20631;-86
2023/07/02 01:54:36;;;;;;;27.30;18.10;;;;;;;-141.97;84.60;47717.06;4955651;29;20695;-87
2023/07/02 01:57:02;;;;;;;25.43;17.37;;;;;;;-141.97;84.72;47499.84;4956394;29;20627;-86
2023/07/02 01:59:27;;;;;;;26.27;16.83;;;;;;;-141.97;84.87;47540.22;4956356;29;20200;-86
2023/07/02 02:01:53;;;;;;;24.47;13.90;;;;;;;-141.97;84.27;47607.50;4939722;29;20247;-86
2023/07/02 02:04:18;;;;;;;22.10;14.30;;;;;;;-141.97;84.42;47349.94;4956603;29;20626;-86
2023/07/02 02:06:44;;;;;;;23.60;13.90;;;;;;;-141.97;85.79;47595.97;4956102;29;20216;-86
2023/07/02 02:09:09;;;;;;;19.57;12.63;;;;;;;-141.97;85.47;47515.22;4955830;29;20185;-86
2023/07/02 02:11:39;;;;;;;22.13;12.80;;;;;;;-141.97;85.30;47515.22;4956423;29;20173;-86
2023/07/02 02:14:04;;;;;;;20.13;12.70;;;;;;;-141.97;85.04;47378.78;4956002;29;20173;-86
2023/07/02 02:16:30;;;;;;;20.83;12.47;;;;;;;-141.97;84.50;47611.34;4955665;29;20177;-85
2023/07/02 02:18:55;;;;;;;19.33;13.13;;;;;;;-141.97;84.20;47401.84;4954980;29;20528;-85
2023/07/02 02:21:22;;;;;;;20.57;14.07;;;;;;;-141.97;83.18;47413.38;4978155;28;20321;-86
2023/07/02 02:23:48;;;;;;;18.67;13.63;;;;;;;-141.97;83.23;47471.03;5016052;28;20197;-86
2023/07/02 02:26:14;;;;;;;21.27;14.23;;;;;;;-141.97;83.02;47530.59;5014091;28;20198;-85
2023/07/02 02:28:40;;;;;;;21.33;13.47;;;;;;;-141.97;83.27;47521.00;5015766;28;20261;-86
2023/07/02 02:31:05;;;;;;;24.43;15.43;;;;;;;-141.97;83.24;47503.69;5016039;28;20202;-87
2023/07/02 02:33:32;;;;;;;21.03;14.20;;;;;;;-141.97;84.43;47496.00;5015731;28;20198;-87
2023/07/02 02:35:58;;;;;;;23.73;15.50;;;;;;;-141.97;84.81;47340.34;5015457;28;20304;-86
2023/07/02 02:38:23;;;;;;;25.77;17.00;;;;;;;-141.97;84.70;47446.03;5013755;28;20199;-86
2023/07/02 02:40:48;;;;;;;25.93;16.50;;;;;;;-141.97;84.89;47686.31;4998307;28;20186;-85
2023/07/02 02:43:16;;;;;;;28.50;17.47;;;;;;;-141.97;84.71;47361.47;5015405;28;20178;-84
2023/07/02 02:45:42;;;;;;;29.17;17.93;;;;;;;-141.97;84.35;47680.53;4996817;28;20609;-85
2023/07/02 02:48:08;;;;;;;33.13;20.30;;;;;;;-141.97;84.05;47392.22;5015131;28;20179;-85
2023/07/02 02:50:33;;;;;;;35.23;20.90;;;;;;;-141.97;84.81;47615.19;5015526;28;20662;-86
2023/07/02 02:52:58;;;;;;;34.13;20.33;;;;;;;-141.97;85.15;47401.84;5015453;28;20225;-86
2023/07/02 02:55:24;;;;;;;35.13;21.13;;;;;;;-141.97;85.56;47401.84;5015281;28;20225;-86
2023/07/02 02:57:49;;;;;;;32.97;20.07;;;;;;;-141.97;86.52;47553.69;5013318;28;20222;-86
2023/07/02 03:00:16;;;;;;;36.73;21.57;;;;;;;-141.97;87.88;47678.63;5015065;28;20182;-85
2023/07/02 03:02:41;;;;;;;40.43;23.03;;;;;;;-141.97;88.77;47609.41;5013872;28;20186;-87
2023/07/02 03:05:07;;;;;;;42.50;23.17;;;;;;;-141.97;89.32;47407.59;4997161;28;20174;-87
2023/07/02 03:07:33;;;;;;;39.93;22.47;;;;;;;-141.97;89.05;47653.63;5013573;28;20171;-86
2023/07/02 03:09:59;;;;;;;39.93;22.33;;;;;;;-141.97;88.74;47503.69;5013846;28;20285;-86
2023/07/02 03:12:27;;;;;;;39.27;22.10;;;;;;;-141.97;88.68;47455.66;5014862;28;20799;-86
2023/07/02 03:14:55;;;;;;;44.20;22.67;;;;;;;-141.97;88.09;47461.41;5014752;28;20194;-86
2023/07/02 03:17:21;;;;;;;44.20;23.17;;;;;;;-141.97;88.09;47496.00;4997654;28;20198;-87
2023/07/02 03:19:46;;;;;;;45.30;22.07;;;;;;;-141.97;87.56;47405.69;5015472;28;20562;-87
2023/07/02 03:22:12;;;;;;;44.33;23.93;;;;;;;-141.97;87.18;47380.69;5014123;28;20218;-86
2023/07/02 03:24:37;;;;;;;47.50;22.77;;;;;;;-141.97;87.50;47736.28;5014565;28;20201;-86
2023/07/02 03:27:03;;;;;;;45.93;23.03;;;;;;;-141.97;87.64;47492.16;5014616;28;20159;-86
2023/07/02 03:29:29;;;;;;;36.17;20.90;;;;;;;-141.97;87.21;47384.53;5014605;28;20190;-86
2023/07/02 03:31:54;;;;;;;41.47;20.47;;;;;;;-141.97;87.52;47411.44;5014913;28;20163;-86
2023/07/02 03:34:20;;;;;;;37.50;19.10;;;;;;;-141.97;88.72;47599.81;5014075;28;20170;-87
2023/07/02 03:36:45;;;;;;;32.53;14.90;;;;;;;-141.97;88.51;47461.41;5014511;28;20163;-85
2023/07/02 03:39:11;;;;;;;25.97;12.23;;;;;;;-141.97;88.53;47651.69;5013850;28;20222;-87
2023/07/02 03:41:36;;;;;;;21.20;11.33;;;;;;;-141.97;88.87;47490.25;5014040;28;20171;-86
2023/07/02 03:44:02;;;;;;;19.20;10.50;;;;;;;-141.97;88.53;47499.84;4996938;28;20182;-87
2023/07/02 03:46:28;;;;;;;17.70;10.50;;;;;;;-141.97;88.68;47271.16;5014163;28;20186;-87
2023/07/02 03:48:53;;;;;;;19.30;9.87;;;;;;;-141.97;88.90;47355.72;5014233;28;20672;-87
2023/07/02 03:51:19;;;;;;;17.10;10.00;;;;;;;-141.97;88.01;47547.91;5013930;28;20357;-87
2023/07/02 03:53:44;;;;;;;20.63;10.47;;;;;;;-141.97;88.40;47415.28;5012360;28;20177;-86
2023/07/02 03:56:10;;;;;;;21.70;10.90;;;;;;;-141.97;88.48;47538.28;5014552;28;20166;-87
2023/07/02 03:58:35;;;;;;;17.23;10.13;;;;;;;-141.97;87.62;47403.75;5013169;28;20201;-87
2023/07/02 04:01:01;;;;;;;19.00;9.73;;;;;;;-141.97;88.24;47726.66;5014619;28;20960;-85
2023/07/02 04:03:26;;;;;;;16.10;10.20;;;;;;;-141.97;88.21;47742.03;5014350;28;20578;-87
2023/07/02 04:05:52;;;;;;;21.40;10.73;;;;;;;-141.97;87.77;47695.91;5014161;28;20178;-86
2023/07/02 04:08:18;;;;;;;18.80;11.27;;;;;;;-141.97;87.90;47522.91;5013632;28;20220;-87
2023/07/02 04:10:43;;;;;;;20.07;11.10;;;;;;;-141.97;86.53;47353.78;5013080;28;20546;-87
2023/07/02 04:13:08;;;;;;;19.30;12.70;;;;;;;-141.97;86.27;47522.91;5013636;28;20195;-86
2023/07/02 04:15:34;;;;;;;23.53;14.47;;;;;;;-141.97;86.46;47480.63;5014547;28;20194;-86
2023/07/02 04:18:00;;;;;;;19.77;11.27;;;;;;;-141.97;86.64;47619.03;5013209;28;20713;-85
2023/07/02 04:20:25;;;;;;;21.80;12.20;;;;;;;-141.97;85.43;47580.59;5014064;28;20199;-86
2023/07/02 04:22:51;;;;;;;19.50;12.97;;;;;;;-141.97;85.01;47321.13;5012316;28;20185;-86
2023/07/02 04:25:17;;;;;;;23.30;11.63;;;;;;;-141.97;85.78;47713.22;5013454;28;20175;-86
2023/07/02 04:27:43;;;;;;;19.93;13.50;;;;;;;-141.97;85.51;47467.19;5014334;28;20178;-86
2023/07/02 04:30:10;;;;;;;19.27;11.93;;;;;;;-141.97;86.54;47599.81;5012997;28;20186;-86
2023/07/02 04:32:39;;;;;;;20.33;12.03;;;;;;;-141.97;86.01;47530.59;5013686;28;20167;-86
2023/07/02 04:35:05;;;;;;;20.40;11.50;;;;;;;-141.97;84.75;47492.16;5012865;28;20171;-86
2023/07/02 04:37:31;;;;;;;17.97;11.27;;;;;;;-141.97;82.89;47323.03;5012655;28;20178;-86
2023/07/02 04:39:56;;;;;;;19.93;11.30;;;;;;;-141.97;82.23;47284.59;5014156;28;20171;-86
2023/07/02 04:42:22;;;;;;;19.57;11.30;;;;;;;-141.97;81.59;47407.59;4996527;28;20185;-86
2023/07/02 04:44:47;;;;;;;21.07;11.57;;;;;;;-141.97;80.60;47615.19;5014875;28;20167;-85
2023/07/02 04:47:12;;;;;;;20.17;11.60;;;;;;;-141.97;80.01;47324.97;5013963;28;20833;-85
2023/07/02 04:49:41;;;;;;;22.17;11.97;;;;;;;-141.97;80.63;47522.91;4995981;28;20182;-88
2023/07/02 04:52:06;;;;;;;21.13;11.90;;;;;;;-141.97;80.59;47540.22;5013834;28;20229;-85
2023/07/02 04:54:32;;;;;;;20.13;11.50;;;;;;;-141.97;81.93;47590.19;5014075;28;20167;-85
2023/07/02 04:56:58;;;;;;;21.60;11.47;;;;;;;-141.97;82.93;47676.69;5014613;28;20174;-85
2023/07/02 04:59:24;;;;;;;23.60;12.13;;;;;;;-141.97;83.52;47453.72;4996313;28;20210;-86
2023/07/02 05:01:49;;;;;;;19.83;11.80;;;;;;;-141.97;84.56;47432.59;5013944;28;20249;-86
2023/07/02 05:04:15;;;;;;;22.57;12.30;;;;;;;-141.97;84.29;47403.75;5013977;28;20221;-85
2023/07/02 05:06:40;;;;;;;22.07;12.43;;;;;;;-141.97;84.23;47365.31;5013859;28;20198;-85
2023/07/02 05:09:05;;;;;;;19.60;12.77;;;;;;;-141.97;87.88;47753.56;5014326;28;20174;-83
2023/07/02 05:11:31;;;;;;;24.77;13.30;;;;;;;-141.97;91.40;47436.44;5013842;28;20202;-84
2023/07/02 05:13:56;;;;;;;24.07;14.63;;;;;;;-141.97;93.15;47586.34;5012943;28;20614;-85
2023/07/02 05:16:22;;;;;;;21.80;14.27;;;;;;;-141.97;94.26;47653.63;5013861;28;20167;-85
2023/07/02 05:18:47;;;;;;;23.97;14.37;;;;;;;-141.97;94.21;47645.94;5013638;28;20697;-86
2023/07/02 05:21:12;;;;;;;26.20;15.37;;;;;;;-141.97;93.76;47730.50;4996719;28;20609;-86
2023/07/02 05:23:38;;;;;;;25.80;14.93;;;;;;;-141.97;93.29;47745.88;5012391;28;20262;-86
2023/07/02 05:26:03;;;;;;;25.50;15.17;;;;;;;-141.97;91.03;47417.22;5014746;28;20167;-85
2023/07/02 05:28:29;;;;;;;23.53;15.17;;;;;;;-141.97;89.64;47734.34;5016801;28;20658;-86
2023/07/02 05:30:54;;;;;;;21.90;12.60;;;;;;;-141.97;87.66;47430.66;5017808;28;20147;-85
2023/07/02 05:33:21;;;;;;;20.57;11.87;;;;;;;-141.97;85.56;47461.41;5017063;28;20170;-85
2023/07/02 05:35:47;;;;;;;20.37;12.20;;;;;;;-141.97;82.43;47453.72;4999972;28;20266;-86
2023/07/02 05:38:13;;;;;;;16.13;10.63;;;;;;;-141.97;80.16;47509.47;5016441;28;20248;-85
2023/07/02 05:40:39;;;;;;;15.53;9.97;;;;;;;-141.97;78.75;47238.47;4998795;28;20178;-87
2023/07/02 05:43:04;;;;;;;17.03;9.43;;;;;;;-141.97;77.84;47561.38;5000003;28;20166;-86
2023/07/02 05:45:29;;;;;;;17.03;9.80;;;;;;;-141.97;78.60;47790.09;5017131;28;20186;-86
2023/07/02 05:47:55;;;;;;;16.17;10.17;;;;;;;-141.97;78.82;47419.13;4999424;28;20179;-86
2023/07/02 05:50:20;;;;;;;17.43;10.90;;;;;;;-141.97;79.12;47538.28;5000172;28;20573;-86
2023/07/02 05:52:46;;;;;;;17.20;11.03;;;;;;;-141.97;80.32;47669.00;5016353;28;20167;-87
2023/07/02 05:55:11;;;;;;;22.23;11.30;;;;;;;-141.97;82.45;47676.69;5017389;28;20240;-88
2023/07/02 05:57:39;;;;;;;24.53;13.00;;;;;;;-141.97;90.68;47449.88;5018708;28;20221;-89
2023/07/02 06:00:06;;;;;;;27.57;13.13;;;;;;;-141.97;92.32;47640.16;5018467;28;20170;-87
2023/07/02 06:02:31;;;;;;;18.57;11.80;;;;;;;-141.97;93.65;47403.75;5015918;28;20237;-87
2023/07/02 06:04:57;;;;;;;22.47;12.70;;;;;;;-141.97;93.86;47632.47;5016945;28;20261;-88
2023/07/02 06:07:24;;;;;;;22.17;12.23;;;;;;;-141.97;94.35;47428.75;5017513;28;20245;-87
2023/07/02 06:09:49;;;;;;;25.67;13.27;;;;;;;-141.97;95.30;47584.44;5017785;28;20174;-88
2023/07/02 06:12:15;;;;;;;19.80;12.27;;;;;;;-141.97;96.40;47776.63;5017485;28;20171;-88
2023/07/02 06:14:40;;;;;;;18.83;11.90;;;;;;;-141.97;95.59;47722.81;5017705;28;20178;-86
2023/07/02 06:17:07;;;;;;;21.17;12.17;;;;;;;-141.97;95.42;47605.56;5019842;28;20250;-87
2023/07/02 06:19:32;;;;;;;20.97;13.23;;;;;;;-141.97;96.12;47334.56;5018307;28;20209;-87
2023/07/02 06:21:58;;;;;;;17.43;11.37;;;;;;;-141.97;92.77;47388.38;5018378;28;20230;-89
2023/07/02 06:24:23;;;;;;;21.00;12.43;;;;;;;-141.97;92.70;47626.72;4999889;28;20236;-88
2023/07/02 06:26:49;;;;;;;18.30;12.37;;;;;;;-141.97;90.93;47223.09;5014993;28;20271;-88
2023/07/02 06:29:14;;;;;;;20.37;12.27;;;;;;;-141.97;91.03;47453.72;5016577;28;20282;-88
2023/07/02 06:31:40;;;;;;;19.50;12.07;;;;;;;-141.97;88.25;47572.91;5017369;28;20163;-88
2023/07/02 06:34:06;;;;;;;21.60;12.20;;;;;;;-141.97;89.24;47501.78;5018134;28;20312;-87
2023/07/02 06:36:31;;;;;;;19.97;12.10;;;;;;;-141.97;88.89;47465.25;5016575;28;20167;-86
2023/07/02 06:38:57;;;;;;;20.67;12.67;;;;;;;-141.97;88.97;47722.81;5016210;28;20225;-86
2023/07/02 06:41:22;;;;;;;18.80;12.77;;;;;;;-141.97;87.93;47465.25;5016683;28;20163;-87
2023/07/02 06:43:48;;;;;;;20.73;12.53;;;;;;;-141.97;85.53;47511.38;5016593;28;20174;-87
2023/07/02 06:46:13;;;;;;;17.20;11.77;;;;;;;-141.97;83.70;47626.72;5016555;28;20175;-86
2023/07/02 06:48:39;;;;;;;17.57;12.10;;;;;;;-141.97;80.94;47740.13;5016599;28;20247;-87
2023/07/02 06:51:04;;;;;;;18.97;12.03;;;;;;;-141.97;79.35;47669.00;5015605;28;20170;-87
2023/07/02 06:53:30;;;;;;;17.73;11.67;;;;;;;-141.97;75.79;47405.69;5016237;28;20202;-86
2023/07/02 06:55:55;;;;;;;18.43;11.40;;;;;;;-141.97;72.62;47569.06;5016673;28;20324;-86
2023/07/02 06:58:20;;;;;;;17.37;10.80;;;;;;;-141.97;71.83;47503.69;5016737;28;20886;-86
2023/07/02 07:00:46;;;;;;;18.40;11.87;;;;;;;-141.97;72.93;47436.44;5015301;28;20171;-87
2023/07/02 07:03:11;;;;;;;15.83;10.90;;;;;;;-141.97;70.74;47688.22;5016356;28;20167;-87
2023/07/02 07:05:37;;;;;;;15.40;10.17;;;;;;;-141.97;69.71;47584.44;5015776;28;20182;-87
2023/07/02 07:08:02;;;;;;;15.70;10.90;;;;;;;-141.97;69.27;47572.91;5017201;28;20163;-86
2023/07/02 07:10:28;;;;;;;14.03;9.93;;;;;;;-141.97;68.31;47592.13;4998289;28;20239;-87
2023/07/02 07:12:53;;;;;;;12.63;9.80;;;;;;;-141.97;68.21;47298.06;5016376;28;20531;-85
2023/07/02 07:15:19;;;;;;;18.23;10.90;;;;;;;-141.97;68.94;47638.25;5015413;28;20175;-87
2023/07/02 07:17:44;;;;;;;12.40;9.70;;;;;;;-141.97;68.07;47392.22;5015916;28;20202;-85
2023/07/02 07:20:10;;;;;;;13.10;9.90;;;;;;;-141.97;67.04;47328.81;5014660;28;20194;-85
2023/07/02 07:22:36;;;;;;;14.23;9.83;;;;;;;-141.97;67.92;47409.53;5014264;28;20182;-85
2023/07/02 07:25:01;;;;;;;13.87;9.73;;;;;;;-141.97;68.49;47488.31;5014045;28;20561;-86
2023/07/02 07:27:26;;;;;;;16.17;10.37;;;;;;;-141.97;69.39;47319.19;5014940;28;20240;-85
2023/07/02 07:29:52;;;;;;;15.13;10.40;;;;;;;-141.97;71.03;47505.63;5014457;28;20167;-84
2023/07/02 07:32:20;;;;;;;14.77;10.43;;;;;;;-141.97;71.49;47638.25;5014034;28;20170;-85
2023/07/02 07:34:46;;;;;;;14.00;9.93;;;;;;;-141.97;70.63;47576.75;4995987;28;20174;-85
2023/07/02 07:37:11;;;;;;;16.17;10.70;;;;;;;-141.97;68.06;47488.31;4996450;28;20185;-85
2023/07/02 07:39:37;;;;;;;15.87;11.00;;;;;;;-141.97;66.54;47342.25;5013029;28;20667;-85
2023/07/02 07:42:02;;;;;;;16.30;11.03;;;;;;;-141.97;64.23;47522.91;5014209;28;20221;-84
2023/07/02 07:44:28;;;;;;;16.70;10.90;;;;;;;-141.97;62.77;47319.19;5014085;28;20643;-85
2023/07/02 07:46:55;;;;;;;15.32;10.00;;;;;;;-141.97;61.27;47296.13;5014669;28;20284;-85
2023/07/02 07:49:21;;;;;;;15.45;10.13;;;;;;;-141.97;58.93;47463.34;5013055;28;20172;-84
2023/07/02 07:51:47;;;;;;;15.70;9.63;;;;;;;-141.97;58.45;47484.47;5013303;28;20200;-85
2023/07/02 07:54:13;;;;;;;14.35;9.95;;;;;;;-141.97;58.50;47515.22;5014259;28;20629;-85
2023/07/02 07:56:38;;;;;;;14.23;9.70;;;;;;;-141.97;58.52;47438.34;5013728;28;20196;-85
2023/07/02 07:59:03;;;;;;;11.70;9.10;;;;;;;-141.97;60.30;47409.53;5013791;28;20198;-85
2023/07/02 08:01:29;;;;;;;14.30;10.55;;;;;;;-141.97;60.08;47313.44;4995955;28;20195;-85
2023/07/02 08:03:55;;;;;;;14.40;10.18;;;;;;;-141.97;61.10;47280.75;5013626;28;20533;-85
2023/07/02 08:06:20;;;;;;;15.63;10.48;;;;;;;-141.97;61.23;47422.97;5013858;28;20232;-85
2023/07/02 08:08:45;;;;;;;12.38;9.32;;;;;;;-141.97;61.31;47476.78;5014170;28;20172;-85
2023/07/02 08:11:11;;;;;;;23.65;10.75;;;;;;;-141.97;61.45;47369.16;4995701;28;20589;-84
2023/07/02 08:13:37;;;;;;;14.30;9.95;;;;;;;-141.97;60.32;47348.03;5013274;28;20180;-85
2023/07/02 08:16:03;;;;;;;14.10;10.82;;;;;;;-141.97;60.84;47388.38;4996650;28;20634;-85
2023/07/02 08:18:28;;;;;;;12.40;10.30;;;;;;;-141.97;59.20;47326.88;5012405;28;20289;-84
2023/07/02 08:20:53;;;;;;;13.52;10.10;;;;;;;-141.97;59.97;47530.59;5013214;28;20742;-85
2023/07/02 08:23:19;;;;;;;15.48;10.40;;;;;;;-141.97;58.25;47615.19;5013342;28;20242;-85
2023/07/02 08:25:44;;;;;;;13.23;9.68;;;;;;;-141.97;58.38;47284.59;5013372;28;20180;-85
2023/07/02 08:28:10;;;;;;;13.27;10.07;;;;;;;-141.97;57.26;47592.13;5013502;28;20631;-85
2023/07/02 08:30:35;;;;;;;13.88;10.25;;;;;;;-141.97;55.88;47161.59;5012986;28;20251;-85
2023/07/02 08:33:01;;;;;;;13.30;9.80;;;;;;;-141.97;56.53;47219.25;5013187;28;20157;-84
2023/07/02 08:35:26;;;;;;;14.48;10.45;;;;;;;-141.97;55.78;47215.41;4994770;28;20172;-84
2023/07/02 08:37:52;;;;;;;14.57;10.02;;;;;;;-141.97;55.31;47392.22;5012619;28;20244;-86
2023/07/02 08:40:19;;;;;;;12.85;9.65;;;;;;;-141.97;55.42;47374.94;5012537;28;20185;-84
2023/07/02 08:42:48;;;;;;;15.35;9.90;;;;;;;-141.97;54.29;47430.66;5013131;28;20171;-86
2023/07/02 08:45:15;;;;;;;13.27;9.45;;;;;;;-141.97;54.29;47409.53;4996651;28;20208;-85
2023/07/02 08:47:41;;;;;;;13.75;9.63;;;;;;;-141.97;54.47;47526.75;5012527;28;20166;-85
2023/07/02 08:50:06;;;;;;;11.82;9.63;;;;;;;-141.97;54.66;47276.91;5012717;28;20174;-85
2023/07/02 08:52:32;;;;;;;14.95;9.60;;;;;;;-141.97;54.42;47303.81;5012901;28;20215;-84
2023/07/02 08:54:57;;;;;;;12.68;9.32;;;;;;;-141.97;52.62;47357.63;5012294;28;20234;-86
2023/07/02 08:57:22;;;;;;;10.77;8.90;;;;;;;-141.97;52.73;47348.03;5011811;28;20549;-85
2023/07/02 08:59:51;;;;;;;12.40;9.43;;;;;;;-141.97;52.60;47432.59;5013599;28;20167;-84
2023/07/02 09:02:16;;;;;;;15.10;8.93;;;;;;;-141.97;52.88;47647.84;5016728;28;20662;-84
2023/07/02 09:04:42;;;;;;;12.15;9.15;;;;;;;-141.97;52.05;47676.69;4998958;28;20171;-85
2023/07/02 09:07:09;;;;;;;11.55;8.57;;;;;;;-141.97;51.82;47392.22;5016301;28;20647;-85
2023/07/02 09:09:48;;;;;;;11.23;8.93;;;;;;;-141.97;51.26;47665.16;5015989;28;20180;-85
2023/07/02 09:12:31;;;;;;;9.02;7.45;;;;;;;-141.97;52.10;47415.28;5016917;28;20628;-84
2023/07/02 09:14:58;;;;;;;10.30;7.65;;;;;;;-141.97;52.72;47421.06;5016849;28;20579;-85
2023/07/02 09:17:30;;;;;;;10.23;8.13;;;;;;;-141.97;52.75;47411.44;5017009;28;20174;-85
2023/07/02 09:19:58;;;;;;;9.13;7.60;;;;;;;-141.97;53.40;47442.19;5017230;28;20162;-85
2023/07/02 09:22:24;;;;;;;9.65;7.72;;;;;;;-141.97;52.34;47382.63;5016641;28;20327;-85
2023/07/02 09:25:00;;;;;;;12.85;7.80;;;;;;;-141.97;51.67;47446.03;4998727;28;20180;-85
2023/07/02 09:27:40;;;;;;;9.32;7.78;;;;;;;-141.97;51.68;47457.56;5016199;28;20196;-85
2023/07/02 09:30:12;;;;;;;12.27;8.30;;;;;;;-141.97;52.02;47255.78;5016395;28;20220;-85
2023/07/02 09:32:37;;;;;;;10.38;7.78;;;;;;;-141.97;50.99;47398.00;4998590;28;20202;-86
2023/07/02 09:35:04;;;;;;;11.07;8.88;;;;;;;-141.97;49.58;47365.31;4998371;28;20169;-84
2023/07/02 09:37:30;;;;;;;10.13;9.10;;;;;;;-141.97;49.68;47311.50;5015805;28;20163;-85
2023/07/02 09:39:56;;;;;;;13.52;8.60;;;;;;;-141.97;49.74;47394.16;5015612;28;20529;-85
2023/07/02 09:42:22;;;;;;;11.05;7.88;;;;;;;-141.97;47.98;47286.53;5015764;28;20177;-85
2023/07/02 09:44:51;;;;;;;10.20;8.52;;;;;;;-141.97;46.71;47336.50;5015188;28;20167;-85
2023/07/02 09:47:19;;;;;;;11.05;7.78;;;;;;;-141.97;46.37;47357.63;5014557;28;20177;-85
2023/07/02 09:49:57;;;;;;;9.75;7.30;;;;;;;-141.97;45.64;47394.16;4997110;28;20171;-86
2023/07/02 09:52:23;;;;;;;10.63;7.85;;;;;;;-141.97;45.88;47649.78;5015080;28;20170;-85
2023/07/02 09:54:48;;;;;;;8.68;7.30;;;;;;;-141.97;46.55;47353.78;5015206;28;20196;-85
2023/07/02 09:57:14;;;;;;;8.88;7.55;;;;;;;-141.97;46.91;47594.03;5015761;28;20166;-86
2023/07/02 09:59:41;;;;;;;9.80;8.23;;;;;;;-141.97;47.16;47319.19;5015248;28;20279;-85
2023/07/02 10:02:09;;;;;;;10.27;8.90;;;;;;;-141.97;48.63;47436.44;5015337;28;20216;-86
2023/07/02 10:04:50;;;;;;;10.00;7.57;;;;;;;-141.97;49.22;47351.88;5014817;28;20166;-86
2023/07/02 10:07:30;;;;;;;9.52;7.78;;;;;;;-141.97;51.24;47519.06;5014777;28;20178;-85
2023/07/02 10:09:55;;;;;;;10.05;7.30;;;;;;;-141.97;50.96;47398.00;5014536;28;20172;-85
2023/07/02 10:12:25;;;;;;;11.93;7.75;;;;;;;-141.97;52.64;47469.09;4996477;28;20174;-83
2023/07/02 10:14:53;;;;;;;11.00;8.32;;;;;;;-141.97;53.73;47248.09;5015926;28;20163;-83
2023/07/02 10:17:29;;;;;;;9.45;7.75;;;;;;;-141.97;55.70;47469.09;4998502;28;20180;-85
2023/07/02 10:19:56;;;;;;;13.43;8.02;;;;;;;-141.97;58.44;47323.03;4996333;28;20661;-84
2023/07/02 10:22:22;;;;;;;11.05;7.53;;;;;;;-141.97;58.93;47415.28;5014615;28;20245;-85
2023/07/02 10:24:59;;;;;;;10.60;7.78;;;;;;;-141.97;61.39;47718.97;5013918;28;20186;-86
2023/07/02 10:27:38;;;;;;;11.63;8.00;;;;;;;-141.97;63.85;47499.84;5014202;28;20170;-86
2023/07/02 10:30:08;;;;;;;11.23;7.85;;;;;;;-141.97;65.84;47444.13;5014243;28;20542;-84
2023/07/02 10:32:34;;;;;;;10.57;7.65;;;;;;;-141.97;66.09;47492.16;5014256;28;20228;-86
2023/07/02 10:35:15;;;;;;;10.90;7.97;;;;;;;-141.97;65.51;47373.00;5014557;28;20163;-86
2023/07/02 10:37:40;;;;;;;11.98;7.97;;;;;;;-141.97;66.04;47490.25;4996796;28;20192;-87
2023/07/02 10:40:09;;;;;;;10.95;7.90;;;;;;;-141.97;65.20;47421.06;5014505;28;20166;-85
2023/07/02 10:42:49;;;;;;;8.70;6.70;;;;;;;-141.97;62.81;47465.25;5015967;28;20171;-85
2023/07/02 10:45:15;;;;;;;12.60;7.80;;;;;;;-141.97;66.28;47497.94;5014980;28;20173;-86
2023/07/02 10:47:43;;;;;;;10.20;7.53;;;;;;;-141.97;66.37;47499.84;5016137;28;20209;-85
2023/07/02 10:50:15;;;;;;;11.38;7.40;;;;;;;-141.97;66.26;47511.38;5012743;28;20182;-86
2023/07/02 10:52:41;;;;;;;11.05;7.90;;;;;;;-141.97;67.27;47465.25;5014315;28;20257;-86
2023/07/02 10:55:06;;;;;;;11.45;8.32;;;;;;;-141.97;69.03;47534.44;5014316;28;20680;-83
2023/07/02 10:57:32;;;;;;;11.95;8.70;;;;;;;-141.97;71.74;47530.59;5015051;28;20180;-85
2023/07/02 11:00:05;;;;;;;13.87;9.17;;;;;;;-141.97;74.65;47474.88;5015805;28;20174;-84
2023/07/02 11:02:40;;;;;;;13.53;9.50;;;;;;;-141.97;74.26;47526.75;5016874;28;20177;-85